Warning: Javascript must be enabled to use all the features on this page!


Page Loading - Please Wait...

Click to hideNews Bulletins
Click to hide state-specific text


USGS 08195000 Frio Rv at Concan, TX

PROVISIONAL DATA SUBJECT TO REVISION

Click to hidestation-specific text
Funding for this site is provided by the cooperators / programs below:
Click to go to the Edwards Aquifer Authority web page

Edwards Aquifer Authority

Click to go to the Cooperative Water Program web page

Cooperative Water Program

 

Rainfall Disclaimer


retransmission, forecasts and summary of this location by the National Weather Service
Retransmission, forecasts and summary by the National Weather Service

National Weather Service provided floatability levels for recreational users at several locations throughout Texas.

This station managed by the San Antonio Field Unit.

Available Parameters Available Period
All 6 Available Parameters for this site
  
00065 Gage height 2007-10-01  2016-05-31
00060 Discharge 2007-10-01  2016-05-31
00045 Precipitation 2016-02-01  2016-05-31
00095 Specific cond at 25C 2013-07-02  2016-05-31
00010 Temperature, water 2013-07-25  2016-05-31
99133 NO3+NO2,water,insitu 2015-09-24  2016-05-31

Graph
Graph w/ stats
Graph w/o stats
Graph w/ (up to 3) parms
Table
Tab-separated
Days  (2)
 

  -- or --
Begin date
 

End date
 

Summary of all available data for this site
Instantaneous-data availability statement






Date / Time




Gage
height,
feet,




Dis-
charge,
ft3/s,



Precip-
itation
total,
inches,
Specif-
ic
conduc-
tance,
wat unf
uS/cm @
25 degC,



Temper-
ature,
water,
deg C,

Nitrate
+
nitrite
water,
in situ
mg/L as,
05/29/2016 00:00 CDT3.79P  87P  0.00P  464P  26.7P  0.417P  
05/29/2016 00:15 CDT3.80P  89P  0.08P  464P  26.6P     
05/29/2016 00:30 CDT3.86P  105P  0.66P  462P  26.4P     
05/29/2016 00:45 CDT3.93P  126P  0.61P  448P  26.1P     
05/29/2016 01:00 CDT4.03P  161P  0.43P  443P  25.8P  0.420P  
05/29/2016 01:15 CDT4.04P  165P  0.06P  433P  25.5P     
05/29/2016 01:30 CDT4.06P  172P  0.01P  427P  25.3P     
05/29/2016 01:45 CDT4.09P  184P  0.00P  404P  24.9P     
05/29/2016 02:00 CDT4.10P  188P  0.00P  383P  24.6P  0.448P  
05/29/2016 02:15 CDT4.12P  196P  0.00P  380P  24.4P     
05/29/2016 02:30 CDT4.16P  214P  0.00P  387P  24.4P     
05/29/2016 02:45 CDT4.23P  246P  0.00P  392P  24.4P     
05/29/2016 03:00 CDT4.33P  297P  0.00P  392P  24.4P  0.441P  
05/29/2016 03:15 CDT4.40P  337P  0.00P  395P  24.4P     
05/29/2016 03:30 CDT4.50P  399P  0.00P  389P  24.3P     
05/29/2016 03:45 CDT4.63P  489P  0.01P  378P  24.1P     
05/29/2016 04:00 CDT4.78P  600P  0.10P  354P  23.9P  0.464P  
05/29/2016 04:15 CDT4.89P  697P  0.22P  339P  23.6P     
05/29/2016 04:30 CDT5.02P  823P  0.26P  342P  23.7P     
05/29/2016 04:45 CDT5.21P  1,030P  0.10P  352P  23.8P     
05/29/2016 05:00 CDT5.52P  1,340P  0.00P  364P  23.8P  0.434P  
05/29/2016 05:15 CDT5.79P  1,660P  0.00P  372P  23.7P     
05/29/2016 05:30 CDT6.03P  1,980P  0.00P  358P  23.4P     
05/29/2016 05:45 CDT6.36P  2,460P  0.00P  335P  23.1P     
05/29/2016 06:00 CDT6.69P  2,990P  0.00P  329P  22.9P  0.479P  
05/29/2016 06:15 CDT6.94P  3,420P  0.01P  291P  22.5P     
05/29/2016 06:30 CDT7.02P  3,560P  0.00P  266P  21.9P     
05/29/2016 06:45 CDT7.03P  3,580P  0.00P  256P  21.7P     
05/29/2016 07:00 CDT6.93P  3,400P  0.00P  252P  21.5P  0.000P  
05/29/2016 07:15 CDT6.84P  3,240P  0.00P  249P  21.4P     
05/29/2016 07:30 CDT6.69P  2,990P  0.00P  246P  21.4P     
05/29/2016 07:45 CDT6.54P  2,740P  0.00P  242P  21.3P     
05/29/2016 08:00 CDT6.47P  2,630P  0.00P  239P  21.3P  0.000P  
05/29/2016 08:15 CDT6.40P  2,520P  0.00P  235P  21.2P     
05/29/2016 08:30 CDT6.29P  2,350P  0.00P  233P  21.2P     
05/29/2016 08:45 CDT6.26P  2,310P  0.00P  230P  21.2P     
05/29/2016 09:00 CDT6.22P  2,250P  0.00P  228P  21.2P  0.000P  
05/29/2016 09:15 CDT6.17P  2,180P  0.00P  227P  21.2P     
05/29/2016 09:30 CDT6.16P  2,160P  0.00P  226P  21.2P     
05/29/2016 09:45 CDT6.12P  2,100P  0.00P  226P  21.2P     
05/29/2016 10:00 CDT6.11P  2,090P  0.00P  227P  21.3P  0.000P  
05/29/2016 10:15 CDT6.05P  2,010P  0.00P  228P  21.3P     
05/29/2016 10:30 CDT6.03P  1,980P  0.00P  231P  21.4P     
05/29/2016 10:45 CDT5.98P  1,910P  0.00P  233P  21.4P     
05/29/2016 11:00 CDT5.95P  1,870P  0.00P  236P  21.5P  0.000P  
05/29/2016 11:15 CDT5.91P  1,820P  0.00P  239P  21.5P     
05/29/2016 11:30 CDT5.88P  1,780P  0.00P  243P  21.6P     
05/29/2016 11:45 CDT5.86P  1,750P  0.00P  247P  21.7P     
05/29/2016 12:00 CDT5.80P  1,670P  0.00P  251P  21.8P  0.000P  
05/29/2016 12:15 CDT5.76P  1,620P  0.00P  256P  22.0P     
05/29/2016 12:30 CDT5.73P  1,590P  0.00P  260P  22.1P     
05/29/2016 12:45 CDT5.69P  1,540P  0.00P  266P  22.2P     
05/29/2016 13:00 CDT5.67P  1,510P  0.00P  272P  22.4P  0.000P  
05/29/2016 13:15 CDT5.63P  1,470P  0.00P  277P  22.5P     
05/29/2016 13:30 CDT5.60P  1,430P  0.00P  281P  22.6P     
05/29/2016 13:45 CDT5.57P  1,400P  0.00P  286P  22.8P     
05/29/2016 14:00 CDT5.56P  1,390P  0.00P  289P  22.9P  0.855P  
05/29/2016 14:15 CDT5.52P  1,340P  0.00P  293P  23.1P     
05/29/2016 14:30 CDT5.49P  1,310P  0.00P  295P  23.2P     
05/29/2016 14:45 CDT5.47P  1,290P  0.00P  298P  23.4P     
05/29/2016 15:00 CDT5.43P  1,240P  0.00P  300P  23.6P  0.823P  
05/29/2016 15:15 CDT5.41P  1,220P  0.00P  301P  23.7P     
05/29/2016 15:30 CDT5.39P  1,200P  0.00P  303P  23.8P     
05/29/2016 15:45 CDT5.35P  1,160P  0.00P  304P  24.0P     
05/29/2016 16:00 CDT5.33P  1,140P  0.00P  306P  24.1P  0.834P  
05/29/2016 16:15 CDT5.31P  1,120P  0.00P  307P  24.2P     
05/29/2016 16:30 CDT5.29P  1,100P  0.00P  309P  24.3P     
05/29/2016 16:45 CDT5.27P  1,080P  0.00P  311P  24.4P     
05/29/2016 17:00 CDT5.25P  1,060P  0.00P  313P  24.4P  0.843P  
05/29/2016 17:15 CDT5.24P  1,050P  0.00P  315P  24.5P     
05/29/2016 17:30 CDT5.22P  1,040P  0.00P  317P  24.6P     
05/29/2016 17:45 CDT5.19P  1,010P  0.00P  319P  24.6P     
05/29/2016 18:00 CDT5.17P  986P  0.00P  321P  24.7P  0.847P  
05/29/2016 18:15 CDT5.15P  963P  0.00P  323P  24.7P     
05/29/2016 18:30 CDT5.13P  941P  0.00P  325P  24.8P     
05/29/2016 18:45 CDT5.11P  919P  0.00P  326P  24.8P     
05/29/2016 19:00 CDT5.09P  897P  0.00P  328P  24.9P  0.847P  
05/29/2016 19:15 CDT5.09P  897P  0.00P  330P  24.9P     
05/29/2016 19:30 CDT5.06P  865P  0.00P  332P  24.9P     
05/29/2016 19:45 CDT5.05P  854P  0.00P  334P  24.9P     
05/29/2016 20:00 CDT5.03P  834P  0.00P  335P  24.9P  0.853P  
05/29/2016 20:15 CDT5.02P  823P  0.00P  337P  24.9P     
05/29/2016 20:30 CDT5.00P  803P  0.00P  338P  24.9P     
05/29/2016 20:45 CDT4.99P  793P  0.00P  340P  24.9P     
05/29/2016 21:00 CDT4.97P  773P  0.00P  341P  24.8P  0.861P  
05/29/2016 21:15 CDT4.96P  763P  0.00P  343P  24.8P     
05/29/2016 21:30 CDT4.95P  754P  0.00P  344P  24.8P     
05/29/2016 21:45 CDT4.94P  744P  0.00P  345P  24.8P     
05/29/2016 22:00 CDT4.93P  734P  0.00P  346P  24.8P  0.879P  
05/29/2016 22:15 CDT4.92P  725P  0.00P  348P  24.7P     
05/29/2016 22:30 CDT4.91P  715P  0.00P  349P  24.7P     
05/29/2016 22:45 CDT4.90P  706P  0.00P  350P  24.7P     
05/29/2016 23:00 CDT4.89P  697P  0.00P  351P  24.6P  0.886P  
05/29/2016 23:15 CDT4.89P  697P  0.00P  352P  24.6P     
05/29/2016 23:30 CDT4.87P  679P  0.00P  353P  24.6P     
05/29/2016 23:45 CDT4.86P  669P  0.00P  354P  24.6P     
05/30/2016 00:00 CDT4.85P  661P  0.00P  356P  24.6P  0.899P  
05/30/2016 00:15 CDT4.84P  652P  0.00P  357P  24.5P     
05/30/2016 00:30 CDT4.84P  652P  0.00P  358P  24.5P     
05/30/2016 00:45 CDT4.83P  643P  0.00P  359P  24.5P     
05/30/2016 01:00 CDT4.83P  643P  0.00P  360P  24.4P  0.912P  
05/30/2016 01:15 CDT4.81P  625P  0.00P  361P  24.4P     
05/30/2016 01:30 CDT4.81P  625P  0.00P  362P  24.4P     
05/30/2016 01:45 CDT4.80P  617P  0.00P  363P  24.4P     
05/30/2016 02:00 CDT4.79P  608P  0.00P  364P  24.3P  0.922P  
05/30/2016 02:15 CDT4.78P  600P  0.00P  365P  24.3P     
05/30/2016 02:30 CDT4.77P  591P  0.00P  366P  24.3P     
05/30/2016 02:45 CDT4.77P  591P  0.00P  367P  24.3P     
05/30/2016 03:00 CDT4.76P  583P  0.00P  368P  24.2P  0.943P  
05/30/2016 03:15 CDT4.76P  583P  0.00P  369P  24.2P     
05/30/2016 03:30 CDT4.75P  575P  0.00P  370P  24.2P     
05/30/2016 03:45 CDT4.75P  575P  0.00P  371P  24.2P     
05/30/2016 04:00 CDT4.74P  567P  0.00P  372P  24.1P  0.960P  
05/30/2016 04:15 CDT4.73P  559P  0.00P  374P  24.1P     
05/30/2016 04:30 CDT4.73P  559P  0.00P  375P  24.1P     
05/30/2016 04:45 CDT4.71P  543P  0.00P  376P  24.0P     
05/30/2016 05:00 CDT4.72P  551P  0.00P  376P  24.0P  0.979P  
05/30/2016 05:15 CDT4.71P  543P  0.00P  377P  24.0P     
05/30/2016 05:30 CDT4.70P  535P  0.00P  378P  24.0P     
05/30/2016 05:45 CDT4.70P  535P  0.00P  379P  23.9P     
05/30/2016 06:00 CDT4.69P  527P  0.00P  380P  23.9P  1.00P  
05/30/2016 06:15 CDT4.69P  527P  0.00P  383P  23.9P     
05/30/2016 06:30 CDT4.68P  519P  0.00P  385P  23.9P     
05/30/2016 06:45 CDT4.68P  519P  0.00P  383P  23.8P     
05/30/2016 07:00 CDT4.67P  519P  0.00P  384P  23.8P  1.02P  
05/30/2016 07:15 CDT4.66P  512P  0.00P  386P  23.8P     
05/30/2016 07:30 CDT4.66P  512P  0.00P  386P  23.8P     
05/30/2016 07:45 CDT4.66P  512P  0.00P  386P  23.8P     
05/30/2016 08:00 CDT4.66P  512P  0.00P  386P  23.7P  1.04P  
05/30/2016 08:15 CDT4.65P  504P  0.03P  388P  23.7P     
05/30/2016 08:30 CDT4.64P  497P  0.00P  391P  23.6P     
05/30/2016 08:45 CDT4.64P  497P  0.00P  390P  23.6P     
05/30/2016 09:00 CDT4.64P  497P  0.00P  392P  23.5P  1.05P  
05/30/2016 09:15 CDT4.64P  497P  0.00P  390P  23.5P     
05/30/2016 09:30 CDT4.64P  497P  0.00P  390P  23.5P     
05/30/2016 09:45 CDT4.63P  489P  0.00P  391P  23.4P     
05/30/2016 10:00 CDT4.63P  489P  0.00P  393P  23.4P  1.07P  
05/30/2016 10:15 CDT4.62P  482P  0.00P  393P  23.4P     
05/30/2016 10:30 CDT4.61P  475P  0.00P  394P  23.4P     
05/30/2016 10:45 CDT4.61P  475P  0.00P  396P  23.5P     
05/30/2016 11:00 CDT4.61P  475P  0.00P  398P  23.5P  1.09P  
05/30/2016 11:15 CDT4.60P  467P  0.00P  399P  23.6P     
05/30/2016 11:30 CDT4.60P  467P  0.00P  399P  23.7P     
05/30/2016 11:45 CDT4.60P  467P  0.00P  399P  23.8P     
05/30/2016 12:00 CDT4.60P  467P  0.00P  400P  23.9P  1.09P  
05/30/2016 12:15 CDT4.59P  460P  0.00P  401P  24.0P     
05/30/2016 12:30 CDT4.58P  453P  0.00P  400P  24.0P     
05/30/2016 12:45 CDT4.59P  460P  0.00P  399P  24.1P     
05/30/2016 13:00 CDT4.58P  453P  0.00P  401P  24.2P  1.11P  
05/30/2016 13:15 CDT4.58P  453P  0.00P  401P  24.3P     
05/30/2016 13:30 CDT4.58P  453P  0.00P  403P  24.4P     
05/30/2016 13:45 CDT4.58P  453P  0.00P  404P  24.4P     
05/30/2016 14:00 CDT4.58P  453P  0.00P  404P  24.6P  1.12P  
05/30/2016 14:15 CDT4.58P  453P  0.00P  404P  24.7P     
05/30/2016 14:30 CDT4.59P  460P  0.00P  406P  24.8P     
05/30/2016 14:45 CDT4.59P  460P  0.00P  405P  24.9P     
05/30/2016 15:00 CDT4.60P  467P  0.00P  405P  25.0P  1.12P  
05/30/2016 15:15 CDT4.59P  460P  0.00P  408P  25.1P     
05/30/2016 15:30 CDT4.59P  460P  0.00P  407P  25.2P     
05/30/2016 15:45 CDT4.59P  460P  0.00P  407P  25.3P     
05/30/2016 16:00 CDT4.59P  460P  0.00P  405P  25.4P  1.13P  
05/30/2016 16:15 CDT4.58P  453P  0.00P  409P  25.5P     
05/30/2016 16:30 CDT4.58P  453P  0.00P  407P  25.6P     
05/30/2016 16:45 CDT4.57P  446P  0.00P  411P  25.6P     
05/30/2016 17:00 CDT4.57P  446P  0.00P  409P  25.7P  1.13P  
05/30/2016 17:15 CDT4.57P  446P  0.00P  410P  25.8P     
05/30/2016 17:30 CDT4.56P  439P  0.00P  409P  25.8P     
05/30/2016 17:45 CDT4.56P  439P  0.00P  412P  25.8P     
05/30/2016 18:00 CDT4.56P  439P  0.00P  414P  25.8P  1.14P  
05/30/2016 18:15 CDT4.55P  432P  0.00P  412P  25.8P     
05/30/2016 18:30 CDT4.54P  425P  0.00P  412P  25.7P     
05/30/2016 18:45 CDT4.54P  425P  0.00P  414P  25.7P     
05/30/2016 19:00 CDT4.53P  419P  0.00P  414P  25.7P  1.14P  
05/30/2016 19:15 CDT4.53P  419P  0.00P  416P  25.6P     
05/30/2016 19:30 CDT4.52P  412P  0.00P  416P  25.6P     
05/30/2016 19:45 CDT4.52P  412P  0.00P  416P  25.6P     
05/30/2016 20:00 CDT4.52P  412P  0.00P  415P  25.5P  1.14P  
05/30/2016 20:15 CDT4.52P  412P  0.00P  414P  25.4P     
05/30/2016 20:30 CDT4.51P  405P  0.00P  414P  25.4P     
05/30/2016 20:45 CDT4.51P  405P  0.00P  413P  25.3P     
05/30/2016 21:00 CDT4.50P  399P  0.00P  417P  25.3P  1.14P  
05/30/2016 21:15 CDT4.50P  399P  0.00P  415P  25.3P     
05/30/2016 21:30 CDT4.50P  399P  0.00P  415P  25.2P     
05/30/2016 21:45 CDT4.49P  392P  0.00P  415P  25.2P     
05/30/2016 22:00 CDT4.49P  392P  0.00P  416P  25.2P  1.14P  
05/30/2016 22:15 CDT4.49P  392P  0.00P  416P  25.1P     
05/30/2016 22:30 CDT4.49P  392P  0.00P  417P  25.1P     
05/30/2016 22:45 CDT4.49P  392P  0.00P  417P  25.1P     
05/30/2016 23:00 CDT4.49P  392P  0.00P  421P  25.0P  1.13P  
05/30/2016 23:15 CDT4.49P  392P  0.00P  418P  25.0P     
05/30/2016 23:30 CDT4.48P  386P  0.00P  418P  25.0P     
05/30/2016 23:45 CDT4.48P  386P  0.00P  418P  25.0P     
05/31/2016 00:00 CDT4.48P  386P  0.00P  418P  24.9P  1.12P  
05/31/2016 00:15 CDT4.47P  379P  0.00P  419P  24.9P     
05/31/2016 00:30 CDT4.47P  379P  0.00P  418P  24.9P     
05/31/2016 00:45 CDT4.47P  379P  0.00P  418P  24.9P     
05/31/2016 01:00 CDT4.47P  379P  0.00P  418P  24.8P  1.11P  
05/31/2016 01:15 CDT4.46P  373P  0.00P  419P  24.8P     
05/31/2016 01:30 CDT4.46P  373P  0.00P  420P  24.8P     
05/31/2016 01:45 CDT4.45P  367P  0.00P  422P  24.8P     
05/31/2016 02:00 CDT4.46P  373P  0.00P  421P  24.7P  1.10P  
05/31/2016 02:15 CDT4.45P  367P  0.00P  422P  24.7P     
05/31/2016 02:30 CDT4.46P  373P  0.00P  422P  24.7P     
05/31/2016 02:45 CDT4.45P  367P  0.00P  421P  24.6P     
05/31/2016 03:00 CDT4.45P  367P  0.00P  420P  24.6P  1.10P  
05/31/2016 03:15 CDT4.44P  361P  0.00P  423P  24.6P     
05/31/2016 03:30 CDT4.45P  367P  0.00P  423P  24.6P     
05/31/2016 03:45 CDT4.44P  361P  0.00P  422P  24.6P     
05/31/2016 04:00 CDT4.44P  361P  0.00P  420P  24.6P  1.10P  
05/31/2016 04:15 CDT4.44P  361P  0.00P  422P  24.6P     
05/31/2016 04:30 CDT4.43P  355P  0.00P  423P  24.5P     
05/31/2016 04:45 CDT4.43P  355P  0.00P  423P  24.5P     
05/31/2016 05:00 CDT4.44P  361P  0.00P  425P  24.5P  1.10P  
05/31/2016 05:15 CDT4.43P  355P  0.00P  427P  24.5P     
05/31/2016 05:30 CDT4.43P  355P  0.00P  426P  24.4P     
05/31/2016 05:45 CDT4.43P  355P  0.00P  424P  24.4P     
05/31/2016 06:00 CDT4.43P  355P  0.00P  427P  24.4P  1.11P  
05/31/2016 06:15 CDT4.43P  355P  0.00P  430P  24.4P     
05/31/2016 06:30 CDT4.42P  349P  0.00P  430P  24.3P     
05/31/2016 06:45 CDT4.42P  349P  0.00P  430P  24.3P     
05/31/2016 07:00 CDT4.42P  349P  0.00P  430P  24.2P  1.11P  
05/31/2016 07:15 CDT4.42P  349P  0.00P  433P  24.2P     
05/31/2016 07:30 CDT4.41P  343P  0.00P  433P  24.1P     
05/31/2016 07:45 CDT4.42P  349P  0.00P  434P  24.1P     
05/31/2016 08:00 CDT4.41P  343P  0.00P  434P  24.1P  1.12P  
05/31/2016 08:15 CDT4.42P  349P  0.00P  434P  24.0P     
05/31/2016 08:30 CDT4.41P  343P  0.00P  434P  24.0P     

Explanation
  P  Provisional data subject to revision.